Time;durP1;ratioP1;P1;durP2;ratioP2;P2;SDS_P1;SDS_P2;PMS_P1;PMS_P2;Temp;Humidity;BMP_temperature;BMP_pressure;BME280_temperature;BME280_humidity;BME280_pressure;Samples;Min_cycle;Max_cycle;Signal;HPM_P1;HPM_P2
2021/10/16 00:02:21;;;;;;;7.43;2.00;;;;;;;;;;5006713;28;20095;-59
2021/10/16 00:04:46;;;;;;;5.13;1.52;;;;;;;;;;5005378;28;20032;-59
2021/10/16 00:07:15;;;;;;;8.93;2.08;;;;;;;;;;5022148;28;20040;-59
2021/10/16 00:09:43;;;;;;;5.75;1.73;;;;;;;;;;4992964;28;20074;-61
2021/10/16 00:12:11;;;;;;;3.97;1.70;;;;;;;;;;5023053;28;20025;-60
2021/10/16 00:14:37;;;;;;;9.10;2.75;;;;;;;;;;5021172;28;20149;-60
2021/10/16 00:17:02;;;;;;;3.13;1.58;;;;;;;;;;5002918;28;20021;-60
2021/10/16 00:19:33;;;;;;;9.18;1.95;;;;;;;;;;4989672;28;20049;-60
2021/10/16 00:22:03;;;;;;;7.13;1.52;;;;;;;;;;4992269;28;20765;-60
2021/10/16 00:24:31;;;;;;;9.30;1.95;;;;;;;;;;4990729;28;20059;-60
2021/10/16 00:26:58;;;;;;;6.75;2.20;;;;;;;;;;5007555;28;20055;-60
2021/10/16 00:29:26;;;;;;;6.47;2.28;;;;;;;;;;5007370;28;20123;-60
2021/10/16 00:31:57;;;;;;;9.07;2.30;;;;;;;;;;5019775;28;20041;-60
2021/10/16 00:34:25;;;;;;;9.90;2.20;;;;;;;;;;5022027;28;20742;-60
2021/10/16 00:36:55;;;;;;;12.75;2.50;;;;;;;;;;4988615;28;20037;-60
2021/10/16 00:39:26;;;;;;;6.75;1.70;;;;;;;;;;5022825;28;20140;-60
2021/10/16 00:41:56;;;;;;;4.88;1.60;;;;;;;;;;5003932;28;20029;-59
2021/10/16 00:44:25;;;;;;;6.75;1.52;;;;;;;;;;5002336;28;20041;-59
2021/10/16 00:46:54;;;;;;;6.28;1.65;;;;;;;;;;5022109;28;20065;-59
2021/10/16 00:49:25;;;;;;;4.65;1.30;;;;;;;;;;5020014;28;20029;-59
2021/10/16 00:51:53;;;;;;;6.28;1.50;;;;;;;;;;5022607;28;20048;-59
2021/10/16 00:54:23;;;;;;;7.45;1.40;;;;;;;;;;5002717;28;20033;-59
2021/10/16 00:56:54;;;;;;;6.03;1.38;;;;;;;;;;4998524;28;20029;-59
2021/10/16 00:59:22;;;;;;;5.85;1.83;;;;;;;;;;5011645;28;20030;-58
2021/10/16 01:01:50;;;;;;;6.40;1.45;;;;;;;;;;4990999;28;20077;-60
2021/10/16 01:04:17;;;;;;;4.38;1.23;;;;;;;;;;5021239;28;20041;-59
2021/10/16 01:06:45;;;;;;;12.65;1.65;;;;;;;;;;5003259;28;20049;-58
2021/10/16 01:09:11;;;;;;;5.05;1.40;;;;;;;;;;4989474;28;20052;-59
2021/10/16 01:11:46;;;;;;;10.73;2.38;;;;;;;;;;5021528;28;20025;-59
2021/10/16 01:14:12;;;;;;;9.38;1.60;;;;;;;;;;5018525;28;20040;-59
2021/10/16 01:16:39;;;;;;;5.00;1.10;;;;;;;;;;5020678;28;20034;-60
2021/10/16 01:19:09;;;;;;;5.90;1.20;;;;;;;;;;5020058;28;20127;-60
2021/10/16 01:21:36;;;;;;;6.80;1.40;;;;;;;;;;5014989;28;20064;-59
2021/10/16 01:24:05;;;;;;;3.97;1.30;;;;;;;;;;5021494;28;20021;-59
2021/10/16 01:26:33;;;;;;;6.20;1.25;;;;;;;;;;5003152;28;20033;-60
2021/10/16 01:29:02;;;;;;;11.65;1.60;;;;;;;;;;5019775;28;20055;-60
2021/10/16 01:31:28;;;;;;;3.42;1.38;;;;;;;;;;5018107;28;20032;-60
2021/10/16 01:33:53;;;;;;;2.63;1.10;;;;;;;;;;5004437;28;21011;-60
2021/10/16 01:36:19;;;;;;;4.55;1.38;;;;;;;;;;5002314;28;20484;-60
2021/10/16 01:38:46;;;;;;;6.32;1.67;;;;;;;;;;5001691;28;20559;-60
2021/10/16 01:41:14;;;;;;;9.32;1.08;;;;;;;;;;5001858;28;20048;-60
2021/10/16 01:43:42;;;;;;;14.48;1.38;;;;;;;;;;5019579;28;20037;-60
2021/10/16 01:46:13;;;;;;;7.88;1.40;;;;;;;;;;5021969;28;20036;-60
2021/10/16 01:48:41;;;;;;;6.85;1.40;;;;;;;;;;5004608;28;20025;-60
2021/10/16 01:51:11;;;;;;;5.00;1.27;;;;;;;;;;4991061;28;20957;-60
2021/10/16 01:53:37;;;;;;;12.52;1.30;;;;;;;;;;5004136;28;20110;-60
2021/10/16 01:56:07;;;;;;;6.95;1.55;;;;;;;;;;4990143;28;20493;-60
2021/10/16 01:58:32;;;;;;;6.85;1.40;;;;;;;;;;4986769;28;20392;-59
2021/10/16 02:00:58;;;;;;;5.05;1.40;;;;;;;;;;5004650;28;20032;-60
2021/10/16 02:03:25;;;;;;;3.33;1.25;;;;;;;;;;5000777;28;20057;-60
2021/10/16 02:05:51;;;;;;;7.22;1.35;;;;;;;;;;5003932;28;20155;-60
2021/10/16 02:08:16;;;;;;;2.78;1.33;;;;;;;;;;5004228;28;20044;-60
2021/10/16 02:10:41;;;;;;;11.77;1.40;;;;;;;;;;5002608;28;20047;-61
2021/10/16 02:13:07;;;;;;;4.85;1.52;;;;;;;;;;5004562;28;20127;-60
2021/10/16 02:15:35;;;;;;;3.78;1.13;;;;;;;;;;5010825;28;20029;-59
2021/10/16 02:18:03;;;;;;;3.50;1.00;;;;;;;;;;4993080;28;20543;-59
2021/10/16 02:20:32;;;;;;;6.70;1.83;;;;;;;;;;5001092;28;20469;-59
2021/10/16 02:23:04;;;;;;;11.10;1.20;;;;;;;;;;5005344;28;20671;-59
2021/10/16 02:25:34;;;;;;;9.88;1.23;;;;;;;;;;5021241;28;20041;-59
2021/10/16 02:28:02;;;;;;;4.47;1.50;;;;;;;;;;5006805;28;20034;-60
2021/10/16 02:30:32;;;;;;;14.70;2.22;;;;;;;;;;5022418;28;20029;-59
2021/10/16 02:36:37;;;;;;;14.63;1.48;;;;;;;;;;5023070;28;20043;-59
2021/10/16 02:39:03;;;;;;;12.88;1.27;;;;;;;;;;5004439;28;20060;-60
2021/10/16 02:41:31;;;;;;;4.22;1.05;;;;;;;;;;5023832;28;20496;-58
2021/10/16 02:43:56;;;;;;;5.65;1.25;;;;;;;;;;4989259;28;22061;-61
2021/10/16 02:46:26;;;;;;;9.48;1.92;;;;;;;;;;5025196;28;20026;-60
2021/10/16 02:48:54;;;;;;;7.93;1.23;;;;;;;;;;4987309;28;20037;-59
2021/10/16 02:51:19;;;;;;;2.35;1.15;;;;;;;;;;4992868;28;20112;-58
2021/10/16 02:53:44;;;;;;;6.03;1.27;;;;;;;;;;5024346;28;20555;-59
2021/10/16 02:56:09;;;;;;;1.92;1.15;;;;;;;;;;4988023;28;20128;-60
2021/10/16 02:58:41;;;;;;;4.60;1.58;;;;;;;;;;5008215;28;20127;-59
2021/10/16 03:01:09;;;;;;;4.40;1.30;;;;;;;;;;5004044;28;20494;-59
2021/10/16 03:03:36;;;;;;;4.22;1.00;;;;;;;;;;5023591;28;21995;-59
2021/10/16 03:06:04;;;;;;;5.50;1.27;;;;;;;;;;5007960;28;20045;-59
2021/10/16 03:08:32;;;;;;;5.07;1.33;;;;;;;;;;5004717;28;20029;-59
2021/10/16 03:11:03;;;;;;;9.43;1.55;;;;;;;;;;5008263;28;20685;-60
2021/10/16 03:13:30;;;;;;;12.30;1.85;;;;;;;;;;5021417;28;20048;-59
2021/10/16 03:15:57;;;;;;;8.93;1.35;;;;;;;;;;4989258;28;20055;-59
2021/10/16 03:18:26;;;;;;;8.38;1.63;;;;;;;;;;5007387;28;20112;-59
2021/10/16 03:20:55;;;;;;;16.23;1.58;;;;;;;;;;5004744;28;20049;-59
2021/10/16 03:23:23;;;;;;;6.05;1.38;;;;;;;;;;5004521;28;20377;-60
2021/10/16 03:25:49;;;;;;;6.75;1.52;;;;;;;;;;5022217;28;20400;-59
2021/10/16 03:28:19;;;;;;;6.88;0.98;;;;;;;;;;4989542;28;20061;-59
2021/10/16 03:30:49;;;;;;;3.90;1.25;;;;;;;;;;5007875;28;20087;-59
2021/10/16 03:33:15;;;;;;;4.47;1.20;;;;;;;;;;5002754;28;20136;-59
2021/10/16 03:35:42;;;;;;;6.53;1.38;;;;;;;;;;5002262;28;20519;-59
2021/10/16 03:38:13;;;;;;;7.72;1.23;;;;;;;;;;5022650;28;20113;-60
2021/10/16 03:40:41;;;;;;;13.65;2.30;;;;;;;;;;5003802;28;20205;-59
2021/10/16 03:43:11;;;;;;;3.92;1.52;;;;;;;;;;5004042;28;20741;-59
2021/10/16 03:45:38;;;;;;;4.65;1.33;;;;;;;;;;5003845;28;20086;-61
2021/10/16 03:48:04;;;;;;;6.15;1.25;;;;;;;;;;5021133;28;20040;-60
2021/10/16 03:50:32;;;;;;;4.15;1.00;;;;;;;;;;5006628;28;20091;-59
2021/10/16 03:53:00;;;;;;;4.28;1.52;;;;;;;;;;5008840;28;20037;-61
2021/10/16 03:55:30;;;;;;;3.90;0.98;;;;;;;;;;5022227;28;20041;-59
2021/10/16 03:57:58;;;;;;;2.30;1.08;;;;;;;;;;5023728;28;20070;-59
2021/10/16 04:00:26;;;;;;;4.65;1.05;;;;;;;;;;5022294;28;20123;-59
2021/10/16 04:02:53;;;;;;;3.90;1.13;;;;;;;;;;5021018;28;20028;-60
2021/10/16 04:05:19;;;;;;;10.70;1.65;;;;;;;;;;4993756;28;20045;-59
2021/10/16 04:07:44;;;;;;;10.25;1.25;;;;;;;;;;5020957;28;20033;-59
2021/10/16 04:10:12;;;;;;;4.70;1.10;;;;;;;;;;5022750;28;20025;-59
2021/10/16 04:12:39;;;;;;;5.43;0.75;;;;;;;;;;5003370;28;20037;-59
2021/10/16 04:15:05;;;;;;;12.32;1.77;;;;;;;;;;5005633;28;20044;-59
2021/10/16 04:17:31;;;;;;;4.57;1.00;;;;;;;;;;5004907;28;20029;-59
2021/10/16 04:19:56;;;;;;;8.18;1.42;;;;;;;;;;5002615;28;20694;-60
2021/10/16 04:22:22;;;;;;;7.35;1.75;;;;;;;;;;5011969;28;20037;-59
2021/10/16 04:24:49;;;;;;;7.47;1.30;;;;;;;;;;4987552;28;20057;-59
2021/10/16 04:27:17;;;;;;;3.88;1.17;;;;;;;;;;5004835;28;20108;-59
2021/10/16 04:29:43;;;;;;;12.75;1.80;;;;;;;;;;5020087;28;20033;-60
2021/10/16 04:32:08;;;;;;;5.75;1.42;;;;;;;;;;4986943;28;20052;-60
2021/10/16 04:34:36;;;;;;;3.50;1.20;;;;;;;;;;4990240;28;20045;-59
2021/10/16 04:37:04;;;;;;;5.30;1.15;;;;;;;;;;5022090;28;20044;-59
2021/10/16 04:39:32;;;;;;;8.30;1.45;;;;;;;;;;5003837;28;20037;-59
2021/10/16 04:41:58;;;;;;;4.70;1.10;;;;;;;;;;4995966;28;20074;-59
2021/10/16 04:44:26;;;;;;;8.02;1.20;;;;;;;;;;4998504;28;20403;-59
2021/10/16 04:46:51;;;;;;;8.52;0.88;;;;;;;;;;5020546;28;20039;-59
2021/10/16 04:49:22;;;;;;;8.63;1.30;;;;;;;;;;5022267;28;20029;-59
2021/10/16 04:51:50;;;;;;;9.98;1.20;;;;;;;;;;5004632;28;20033;-59
2021/10/16 04:54:15;;;;;;;10.05;1.20;;;;;;;;;;5011623;28;20060;-59
2021/10/16 04:56:40;;;;;;;5.60;1.08;;;;;;;;;;5020820;28;20035;-60
2021/10/16 04:59:06;;;;;;;9.85;1.08;;;;;;;;;;4987883;28;20023;-60
2021/10/16 05:01:31;;;;;;;9.45;1.50;;;;;;;;;;4989557;28;20056;-59
2021/10/16 05:03:56;;;;;;;11.70;1.10;;;;;;;;;;4989188;28;20032;-60
2021/10/16 05:06:22;;;;;;;8.85;1.25;;;;;;;;;;5018591;28;20612;-59
2021/10/16 05:08:50;;;;;;;7.97;1.73;;;;;;;;;;5000784;28;20030;-60
2021/10/16 05:11:25;;;;;;;3.30;1.20;;;;;;;;;;4976353;28;20041;-59
2021/10/16 05:13:53;;;;;;;9.43;1.10;;;;;;;;;;4994919;28;20025;-59
2021/10/16 05:19:53;;;;;;;5.82;1.20;;;;;;;;;;5020466;28;20036;-59
2021/10/16 05:22:19;;;;;;;2.53;1.38;;;;;;;;;;4989553;28;20033;-61
2021/10/16 05:24:44;;;;;;;5.63;1.35;;;;;;;;;;5020711;28;20413;-60
2021/10/16 05:27:12;;;;;;;6.70;1.27;;;;;;;;;;5019834;28;21117;-61
2021/10/16 05:29:42;;;;;;;5.28;1.50;;;;;;;;;;5002423;28;20155;-61
2021/10/16 05:32:10;;;;;;;9.05;1.42;;;;;;;;;;5004766;28;20056;-58
2021/10/16 05:34:41;;;;;;;12.25;1.60;;;;;;;;;;5005199;28;20068;-59
2021/10/16 05:37:09;;;;;;;2.38;1.00;;;;;;;;;;5018441;28;20037;-59
2021/10/16 05:39:37;;;;;;;13.30;1.80;;;;;;;;;;5007480;28;20057;-60
2021/10/16 05:42:05;;;;;;;6.55;1.52;;;;;;;;;;4988469;28;20111;-59
2021/10/16 05:44:32;;;;;;;10.13;1.73;;;;;;;;;;5006687;28;20135;-59
2021/10/16 05:47:00;;;;;;;14.18;2.08;;;;;;;;;;5009762;28;20033;-59
2021/10/16 05:53:01;;;;;;;9.48;1.40;;;;;;;;;;5020884;28;20028;-60
2021/10/16 05:55:27;;;;;;;4.57;1.58;;;;;;;;;;5019749;28;20107;-60
2021/10/16 05:57:54;;;;;;;7.07;2.08;;;;;;;;;;4986675;28;20053;-59
2021/10/16 06:00:22;;;;;;;7.95;1.95;;;;;;;;;;5021277;28;20108;-59
2021/10/16 06:02:52;;;;;;;7.78;1.90;;;;;;;;;;5017900;28;20025;-59
2021/10/16 06:05:20;;;;;;;8.05;1.60;;;;;;;;;;4984585;28;20048;-61
2021/10/16 06:07:50;;;;;;;6.18;1.60;;;;;;;;;;5004664;28;20263;-60
2021/10/16 06:10:16;;;;;;;11.27;1.77;;;;;;;;;;5020649;28;20029;-61
2021/10/16 06:12:46;;;;;;;9.60;1.92;;;;;;;;;;5018619;28;20783;-59
2021/10/16 06:15:16;;;;;;;8.77;2.03;;;;;;;;;;5020264;28;20201;-59
2021/10/16 06:17:44;;;;;;;4.30;2.50;;;;;;;;;;4988056;28;20095;-59
2021/10/16 06:20:15;;;;;;;7.82;2.22;;;;;;;;;;5021270;28;20057;-59
2021/10/16 06:22:42;;;;;;;7.55;2.55;;;;;;;;;;5022596;28;20025;-60
2021/10/16 06:25:08;;;;;;;9.68;1.45;;;;;;;;;;5003831;28;20032;-60
2021/10/16 06:27:34;;;;;;;6.72;1.73;;;;;;;;;;5022137;28;20037;-60
2021/10/16 06:29:59;;;;;;;8.73;1.90;;;;;;;;;;5019648;28;20028;-60
2021/10/16 06:32:27;;;;;;;12.18;2.20;;;;;;;;;;4989604;28;20045;-60
2021/10/16 06:34:53;;;;;;;14.10;3.15;;;;;;;;;;5004272;28;20114;-59
2021/10/16 06:37:18;;;;;;;19.13;2.97;;;;;;;;;;5001565;28;20083;-59
2021/10/16 06:39:43;;;;;;;6.20;2.08;;;;;;;;;;4987130;28;20072;-62
2021/10/16 07:38:10;;;;;;;11.68;2.20;;;;;;;;;;5030202;28;20055;-60
2021/10/16 07:40:41;;;;;;;6.63;1.85;;;;;;;;;;5020898;28;20106;-60
2021/10/16 07:43:12;;;;;;;3.80;1.60;;;;;;;;;;5002561;28;21897;-60
2021/10/16 07:45:40;;;;;;;12.43;2.60;;;;;;;;;;5003490;28;20502;-60
2021/10/16 07:48:08;;;;;;;6.47;2.08;;;;;;;;;;5023318;28;20040;-60
2021/10/16 07:50:35;;;;;;;6.13;2.63;;;;;;;;;;5007196;28;20672;-59
2021/10/16 07:53:05;;;;;;;8.75;2.10;;;;;;;;;;5003181;28;20493;-60
2021/10/16 07:55:33;;;;;;;11.10;2.25;;;;;;;;;;4991365;28;21165;-61
2021/10/16 07:58:03;;;;;;;9.50;2.40;;;;;;;;;;5004608;28;20060;-61
2021/10/16 08:00:31;;;;;;;5.65;2.20;;;;;;;;;;5009127;28;20033;-60
2021/10/16 08:02:57;;;;;;;7.18;2.05;;;;;;;;;;5003477;28;20037;-60
2021/10/16 08:05:25;;;;;;;9.85;2.05;;;;;;;;;;4991990;28;20488;-59
2021/10/16 08:07:54;;;;;;;12.80;2.45;;;;;;;;;;5002912;28;20025;-61
2021/10/16 08:10:21;;;;;;;4.65;1.90;;;;;;;;;;5023019;28;20048;-60
2021/10/16 08:12:46;;;;;;;5.82;1.85;;;;;;;;;;5008405;28;20110;-61
2021/10/16 08:15:15;;;;;;;7.43;2.55;;;;;;;;;;5023962;28;20037;-58
2021/10/16 08:17:41;;;;;;;4.95;2.40;;;;;;;;;;5024816;28;20025;-61
2021/10/16 08:20:07;;;;;;;10.45;2.58;;;;;;;;;;4990684;28;20048;-59
2021/10/16 08:22:34;;;;;;;4.15;2.15;;;;;;;;;;5022710;28;20396;-59
2021/10/16 08:25:04;;;;;;;8.30;2.38;;;;;;;;;;5009045;28;22074;-60
2021/10/16 08:27:29;;;;;;;9.40;1.98;;;;;;;;;;5007905;28;20060;-60
2021/10/16 08:29:57;;;;;;;7.95;1.83;;;;;;;;;;5005463;28;20037;-60
2021/10/16 08:32:23;;;;;;;5.45;2.03;;;;;;;;;;5025191;28;20094;-59
2021/10/16 08:34:53;;;;;;;7.35;1.83;;;;;;;;;;4989192;28;20167;-60
2021/10/16 08:37:18;;;;;;;6.18;1.98;;;;;;;;;;5002577;28;20032;-61
2021/10/16 08:39:46;;;;;;;4.43;2.38;;;;;;;;;;4993913;28;20049;-59
2021/10/16 08:42:17;;;;;;;9.93;2.60;;;;;;;;;;5008140;28;20040;-62
2021/10/16 08:44:48;;;;;;;5.72;2.92;;;;;;;;;;5006800;28;20407;-59
2021/10/16 08:47:19;;;;;;;7.82;2.35;;;;;;;;;;5023004;28;20041;-59
2021/10/16 08:49:46;;;;;;;7.57;2.10;;;;;;;;;;5021852;28;20071;-60
2021/10/16 08:52:17;;;;;;;5.38;1.70;;;;;;;;;;5003416;28;20029;-60
2021/10/16 08:54:44;;;;;;;4.28;1.50;;;;;;;;;;5022381;28;20029;-61
2021/10/16 08:57:12;;;;;;;11.43;2.08;;;;;;;;;;4989254;28;20538;-59
2021/10/16 08:59:37;;;;;;;4.45;1.77;;;;;;;;;;4989746;28;20053;-59
2021/10/16 09:02:06;;;;;;;6.18;2.15;;;;;;;;;;5007005;28;20207;-61
2021/10/16 09:04:34;;;;;;;6.47;1.58;;;;;;;;;;5007583;28;20045;-60
2021/10/16 09:07:16;;;;;;;5.40;2.15;;;;;;;;;;5023674;28;20025;-59
2021/10/16 09:09:42;;;;;;;2.83;1.80;;;;;;;;;;5008177;28;20076;-59
2021/10/16 09:12:15;;;;;;;14.73;2.53;;;;;;;;;;5021105;28;20034;-59
2021/10/16 09:14:47;;;;;;;7.50;1.50;;;;;;;;;;5001185;28;20033;-59
2021/10/16 09:17:19;;;;;;;4.35;1.33;;;;;;;;;;5008390;28;20049;-59
2021/10/16 09:19:46;;;;;;;15.85;2.50;;;;;;;;;;5005625;28;20033;-60
2021/10/16 09:22:11;;;;;;;5.60;1.50;;;;;;;;;;5023033;28;20017;-60
2021/10/16 09:24:41;;;;;;;11.32;1.98;;;;;;;;;;5004737;28;20024;-60
2021/10/16 09:27:11;;;;;;;4.72;1.80;;;;;;;;;;5003499;28;20705;-59
2021/10/16 09:29:38;;;;;;;11.30;1.98;;;;;;;;;;5008041;28;20053;-60
2021/10/16 09:32:13;;;;;;;5.65;2.17;;;;;;;;;;5007992;28;22024;-60
2021/10/16 09:34:39;;;;;;;;;;;;;;;;;;5010125;28;20029;-61
2021/10/16 09:37:04;;;;;;;10.90;2.40;;;;;;;;;;5021249;28;20372;-61
2021/10/16 09:39:30;;;;;;;5.28;2.20;;;;;;;;;;5020249;28;20378;-60
2021/10/16 09:41:55;;;;;;;11.15;2.25;;;;;;;;;;4988719;28;20033;-60
2021/10/16 09:44:27;;;;;;;8.63;2.17;;;;;;;;;;5005693;28;20041;-59
2021/10/16 09:47:18;;;;;;;11.18;2.58;;;;;;;;;;4990187;28;20029;-60
2021/10/16 09:49:45;;;;;;;7.88;3.70;;;;;;;;;;5001564;28;20132;-60
2021/10/16 09:52:13;;;;;;;7.97;2.90;;;;;;;;;;5022513;28;20056;-61
2021/10/16 09:54:44;;;;;;;9.93;3.30;;;;;;;;;;5004401;28;21054;-61
2021/10/16 09:57:12;;;;;;;10.38;3.05;;;;;;;;;;5023229;28;20503;-59
2021/10/16 09:59:42;;;;;;;11.75;2.28;;;;;;;;;;5003103;28;20026;-60
2021/10/16 10:02:12;;;;;;;12.60;2.05;;;;;;;;;;4986868;28;20913;-60
2021/10/16 10:04:40;;;;;;;10.20;2.75;;;;;;;;;;5021932;28;20045;-61
2021/10/16 10:07:09;;;;;;;12.25;2.53;;;;;;;;;;5009057;28;20896;-61
2021/10/16 10:09:41;;;;;;;8.20;2.75;;;;;;;;;;5022037;28;20021;-60
2021/10/16 10:12:19;;;;;;;8.30;2.33;;;;;;;;;;4986284;28;20029;-60
2021/10/16 10:14:47;;;;;;;14.02;2.28;;;;;;;;;;5020540;28;20115;-60
2021/10/16 10:17:17;;;;;;;8.52;2.00;;;;;;;;;;5021937;28;20053;-61
2021/10/16 10:19:46;;;;;;;5.85;1.98;;;;;;;;;;5001109;28;20025;-60
2021/10/16 10:22:19;;;;;;;10.55;2.45;;;;;;;;;;4988468;28;20037;-60
2021/10/16 10:24:46;;;;;;;7.72;2.05;;;;;;;;;;5008141;28;20040;-60
2021/10/16 10:27:15;;;;;;;5.53;2.05;;;;;;;;;;5006852;28;20029;-61
2021/10/16 10:29:47;;;;;;;8.45;1.92;;;;;;;;;;5023110;28;20041;-60
2021/10/16 10:32:13;;;;;;;9.90;2.47;;;;;;;;;;5010275;28;20047;-60
2021/10/16 10:34:53;;;;;;;10.50;2.33;;;;;;;;;;5023358;28;20037;-61
2021/10/16 10:37:18;;;;;;;8.30;2.50;;;;;;;;;;5007433;28;20737;-61
2021/10/16 10:39:47;;;;;;;10.35;1.75;;;;;;;;;;4990949;28;20052;-62
2021/10/16 10:42:15;;;;;;;9.95;1.80;;;;;;;;;;5003587;28;20117;-62
2021/10/16 10:44:42;;;;;;;5.38;1.77;;;;;;;;;;5025725;28;20252;-61
2021/10/16 10:47:19;;;;;;;5.35;1.52;;;;;;;;;;5025913;28;20773;-61
2021/10/16 10:49:45;;;;;;;3.22;1.67;;;;;;;;;;4994276;28;20036;-61
2021/10/16 10:52:14;;;;;;;9.70;2.10;;;;;;;;;;5009302;28;20025;-61
2021/10/16 10:54:40;;;;;;;6.05;1.63;;;;;;;;;;5024783;28;20033;-61
2021/10/16 10:57:07;;;;;;;9.48;2.67;;;;;;;;;;5026980;28;20025;-61
2021/10/16 10:59:56;;;;;;;8.30;2.03;;;;;;;;;;5007351;28;20128;-61
2021/10/16 11:02:28;;;;;;;8.80;1.83;;;;;;;;;;5026653;28;20029;-61
2021/10/16 11:04:55;;;;;;;6.13;1.65;;;;;;;;;;5025046;28;20032;-62
2021/10/16 11:07:44;;;;;;;3.63;1.30;;;;;;;;;;5006306;28;20040;-61
2021/10/16 11:10:10;;;;;;;5.85;1.48;;;;;;;;;;5005059;28;20037;-62
2021/10/16 11:12:39;;;;;;;6.72;1.77;;;;;;;;;;5007928;28;20029;-61
2021/10/16 11:15:05;;;;;;;10.25;1.70;;;;;;;;;;5007925;28;20402;-61
2021/10/16 11:17:35;;;;;;;10.05;1.50;;;;;;;;;;5023146;28;20036;-62
2021/10/16 11:20:04;;;;;;;5.75;2.40;;;;;;;;;;5025568;28;20978;-62
2021/10/16 11:22:49;;;;;;;7.13;1.73;;;;;;;;;;4989962;28;20020;-62
2021/10/16 11:25:18;;;;;;;9.05;1.80;;;;;;;;;;5025857;28;20068;-62
2021/10/16 11:27:57;;;;;;;6.38;1.90;;;;;;;;;;4991101;28;20105;-62
2021/10/16 11:30:22;;;;;;;5.25;1.92;;;;;;;;;;5010469;28;20029;-62
2021/10/16 11:32:50;;;;;;;3.50;1.45;;;;;;;;;;5004780;28;20021;-62
2021/10/16 11:35:16;;;;;;;15.50;2.13;;;;;;;;;;5025520;28;20079;-62
2021/10/16 11:37:43;;;;;;;5.75;1.13;;;;;;;;;;5022985;28;20029;-62
2021/10/16 11:40:17;;;;;;;7.70;1.45;;;;;;;;;;4994799;28;20040;-62
2021/10/16 11:42:50;;;;;;;6.78;1.58;;;;;;;;;;5006329;28;20032;-61
2021/10/16 11:45:19;;;;;;;5.25;1.52;;;;;;;;;;4993350;28;21017;-61
2021/10/16 11:47:47;;;;;;;5.22;0.82;;;;;;;;;;5007242;28;20033;-62
2021/10/16 11:50:17;;;;;;;8.98;1.88;;;;;;;;;;5008289;28;20053;-61
2021/10/16 11:52:51;;;;;;;7.15;1.63;;;;;;;;;;5025352;28;20120;-62
2021/10/16 11:55:17;;;;;;;5.95;1.58;;;;;;;;;;5021074;28;20132;-62
2021/10/16 11:57:47;;;;;;;5.38;1.40;;;;;;;;;;5025297;28;20568;-62
2021/10/16 12:00:19;;;;;;;4.85;1.17;;;;;;;;;;5023616;28;20024;-62
2021/10/16 12:02:45;;;;;;;8.05;1.50;;;;;;;;;;5024529;28;21182;-61
2021/10/16 12:05:15;;;;;;;6.93;1.40;;;;;;;;;;5023812;28;20044;-62
2021/10/16 12:07:42;;;;;;;5.68;1.58;;;;;;;;;;5024460;28;20067;-62
2021/10/16 12:10:20;;;;;;;8.95;1.63;;;;;;;;;;5010122;28;20553;-62
2021/10/16 12:13:02;;;;;;;9.27;1.50;;;;;;;;;;5004366;28;20044;-62
2021/10/16 12:15:54;;;;;;;9.07;1.40;;;;;;;;;;5021966;28;20388;-61
2021/10/16 12:18:23;;;;;;;5.78;1.42;;;;;;;;;;4975937;28;20045;-62
2021/10/16 12:20:53;;;;;;;4.60;1.23;;;;;;;;;;5007882;28;20464;-62
2021/10/16 12:23:20;;;;;;;9.40;1.48;;;;;;;;;;5023823;28;20017;-63
2021/10/16 12:25:50;;;;;;;6.43;1.45;;;;;;;;;;5023907;28;20171;-62
2021/10/16 12:28:19;;;;;;;7.15;1.80;;;;;;;;;;5004885;28;20031;-63
2021/10/16 12:31:11;;;;;;;4.55;1.58;;;;;;;;;;5022287;28;20032;-62
2021/10/16 12:33:55;;;;;;;6.93;1.70;;;;;;;;;;4998178;28;20047;-63
2021/10/16 12:36:27;;;;;;;7.50;1.95;;;;;;;;;;5025448;28;20091;-62
2021/10/16 12:38:55;;;;;;;5.88;1.60;;;;;;;;;;4986007;28;20965;-63
2021/10/16 12:41:26;;;;;;;6.57;1.60;;;;;;;;;;5004394;28;20033;-63
2021/10/16 12:43:53;;;;;;;5.70;1.45;;;;;;;;;;4985203;28;20453;-62
2021/10/16 12:46:30;;;;;;;7.78;2.22;;;;;;;;;;5005445;28;20024;-62
2021/10/16 12:48:56;;;;;;;5.50;1.30;;;;;;;;;;5002913;28;20098;-62
2021/10/16 12:51:37;;;;;;;5.50;1.23;;;;;;;;;;5005863;28;21212;-63
2021/10/16 12:54:05;;;;;;;7.38;1.40;;;;;;;;;;4985459;28;20672;-62
2021/10/16 12:56:31;;;;;;;12.18;1.23;;;;;;;;;;4991025;28;20712;-63
2021/10/16 12:59:02;;;;;;;6.13;1.30;;;;;;;;;;5001925;28;20021;-62
2021/10/16 13:01:35;;;;;;;4.75;0.88;;;;;;;;;;5007176;28;22125;-63
2021/10/16 13:04:00;;;;;;;8.57;1.27;;;;;;;;;;4999890;28;20037;-62
2021/10/16 13:06:25;;;;;;;14.27;1.40;;;;;;;;;;5020755;28;20029;-63
2021/10/16 13:08:51;;;;;;;7.32;1.00;;;;;;;;;;4985557;28;20037;-62
2021/10/16 13:11:17;;;;;;;4.20;0.93;;;;;;;;;;5007157;28;20021;-62
2021/10/16 13:13:45;;;;;;;4.45;0.98;;;;;;;;;;5003299;28;20150;-62
2021/10/16 13:16:15;;;;;;;5.82;1.05;;;;;;;;;;5005852;28;20151;-62
2021/10/16 13:18:41;;;;;;;4.55;0.90;;;;;;;;;;5019417;28;20024;-62
2021/10/16 13:21:09;;;;;;;6.03;1.23;;;;;;;;;;5003271;28;20174;-63
2021/10/16 13:23:37;;;;;;;4.47;1.10;;;;;;;;;;5003271;28;20036;-63
2021/10/16 13:26:03;;;;;;;4.68;1.10;;;;;;;;;;5019466;28;20070;-63
2021/10/16 13:28:28;;;;;;;4.53;1.00;;;;;;;;;;5003922;28;20041;-63
2021/10/16 13:30:53;;;;;;;9.73;1.27;;;;;;;;;;4988159;28;20086;-63
2021/10/16 13:33:23;;;;;;;2.85;1.00;;;;;;;;;;5020647;28;20120;-63
2021/10/16 13:35:51;;;;;;;5.63;1.63;;;;;;;;;;5002323;28;20033;-62
2021/10/16 13:38:17;;;;;;;4.90;0.93;;;;;;;;;;5000170;28;20105;-62
2021/10/16 13:40:46;;;;;;;9.75;1.27;;;;;;;;;;5005405;28;20029;-62
2021/10/16 13:43:15;;;;;;;7.53;1.38;;;;;;;;;;5018846;28;20111;-62
2021/10/16 13:45:43;;;;;;;11.23;1.65;;;;;;;;;;5020088;28;20022;-62
2021/10/16 13:48:13;;;;;;;7.95;1.35;;;;;;;;;;5002100;28;20128;-61
2021/10/16 13:50:41;;;;;;;6.65;1.65;;;;;;;;;;5003607;28;20120;-62
2021/10/16 13:53:07;;;;;;;8.60;1.70;;;;;;;;;;5019847;28;20438;-61
2021/10/16 13:55:37;;;;;;;4.57;1.60;;;;;;;;;;5018314;28;20082;-62
2021/10/16 13:58:03;;;;;;;7.20;1.70;;;;;;;;;;5003162;28;20057;-62
2021/10/16 14:00:29;;;;;;;9.50;1.90;;;;;;;;;;5003427;28;22099;-62
2021/10/16 14:02:54;;;;;;;6.90;2.03;;;;;;;;;;4989419;28;20075;-62
2021/10/16 14:05:20;;;;;;;11.25;1.98;;;;;;;;;;5005148;28;20029;-62
2021/10/16 14:07:51;;;;;;;13.25;2.17;;;;;;;;;;4993074;28;20047;-62
2021/10/16 14:10:18;;;;;;;6.32;1.67;;;;;;;;;;5006827;28;20037;-63
2021/10/16 14:12:44;;;;;;;12.80;1.80;;;;;;;;;;5023202;28;20155;-62
2021/10/16 14:15:10;;;;;;;8.38;1.77;;;;;;;;;;5004662;28;20552;-63
2021/10/16 14:17:37;;;;;;;6.28;1.73;;;;;;;;;;5008230;28;20568;-62
2021/10/16 14:20:03;;;;;;;8.57;1.60;;;;;;;;;;5007231;28;20662;-64
2021/10/16 14:22:29;;;;;;;10.88;1.52;;;;;;;;;;5005621;28;20040;-62
2021/10/16 14:24:55;;;;;;;12.52;2.42;;;;;;;;;;5026181;28;20248;-62
2021/10/16 14:27:23;;;;;;;5.80;1.48;;;;;;;;;;4991420;28;20031;-62
2021/10/16 14:29:55;;;;;;;13.40;2.10;;;;;;;;;;5008968;28;20035;-63
2021/10/16 14:32:25;;;;;;;10.02;1.77;;;;;;;;;;5004064;28;20032;-62
2021/10/16 14:34:51;;;;;;;9.15;1.58;;;;;;;;;;5008248;28;20112;-62
2021/10/16 14:37:18;;;;;;;10.20;2.38;;;;;;;;;;4975926;28;20746;-62
2021/10/16 14:39:44;;;;;;;3.15;1.33;;;;;;;;;;5007422;28;20058;-62
2021/10/16 14:42:12;;;;;;;8.95;2.10;;;;;;;;;;5021830;28;20045;-62
2021/10/16 14:44:37;;;;;;;7.88;1.52;;;;;;;;;;5022529;28;20025;-62
2021/10/16 14:47:07;;;;;;;9.45;2.20;;;;;;;;;;5023285;28;20654;-62
2021/10/16 14:49:32;;;;;;;11.45;2.15;;;;;;;;;;5004589;28;20037;-63
2021/10/16 14:52:00;;;;;;;8.73;2.03;;;;;;;;;;5004475;28;20563;-62
2021/10/16 14:54:28;;;;;;;8.15;1.60;;;;;;;;;;4976538;28;20029;-63
2021/10/16 14:56:53;;;;;;;10.13;2.15;;;;;;;;;;5022471;28;20095;-63
2021/10/16 14:59:21;;;;;;;11.80;1.92;;;;;;;;;;5022967;28;20383;-61
2021/10/16 15:01:49;;;;;;;9.32;1.90;;;;;;;;;;5005072;28;20025;-62
2021/10/16 15:04:14;;;;;;;7.93;1.90;;;;;;;;;;4991872;28;20052;-61
2021/10/16 15:06:42;;;;;;;11.15;2.22;;;;;;;;;;5007281;28;20134;-62
2021/10/16 15:09:10;;;;;;;6.93;1.35;;;;;;;;;;5025109;28;20107;-62
2021/10/16 15:11:43;;;;;;;19.48;2.63;;;;;;;;;;5003798;28;20124;-62
2021/10/16 15:14:10;;;;;;;17.92;2.25;;;;;;;;;;5010418;28;20124;-61
2021/10/16 15:16:40;;;;;;;6.13;2.08;;;;;;;;;;5024212;28;20037;-62
2021/10/16 15:19:08;;;;;;;8.95;2.53;;;;;;;;;;4992428;28;20119;-61
2021/10/16 15:21:39;;;;;;;10.65;2.00;;;;;;;;;;5007288;28;20021;-62
2021/10/16 15:24:09;;;;;;;11.75;2.20;;;;;;;;;;5005550;28;20571;-62
2021/10/16 15:26:37;;;;;;;15.32;2.35;;;;;;;;;;5008120;28;20044;-61
2021/10/16 15:29:08;;;;;;;10.18;2.10;;;;;;;;;;5006583;28;20072;-63
2021/10/16 15:31:33;;;;;;;8.02;1.75;;;;;;;;;;4990415;28;22108;-63
2021/10/16 15:34:04;;;;;;;6.05;1.60;;;;;;;;;;5005099;28;20033;-61
2021/10/16 15:36:32;;;;;;;6.93;1.75;;;;;;;;;;5006471;28;20468;-64
2021/10/16 15:39:00;;;;;;;17.10;2.13;;;;;;;;;;5010366;28;20049;-64
2021/10/16 15:41:28;;;;;;;8.00;1.98;;;;;;;;;;5022859;28;20048;-63
2021/10/16 15:43:58;;;;;;;5.30;1.90;;;;;;;;;;5020374;28;20032;-62
2021/10/16 15:46:23;;;;;;;9.40;1.75;;;;;;;;;;5008150;28;20086;-63
2021/10/16 15:48:49;;;;;;;8.80;2.25;;;;;;;;;;4990675;28;20025;-64
2021/10/16 15:51:19;;;;;;;7.85;1.88;;;;;;;;;;5003110;28;20041;-63
2021/10/16 15:53:44;;;;;;;5.88;2.42;;;;;;;;;;4991671;28;20049;-62
2021/10/16 15:56:12;;;;;;;11.60;2.53;;;;;;;;;;5003620;28;20036;-63